Time;durP1;ratioP1;P1;durP2;ratioP2;P2;SDS_P1;SDS_P2;PMS_P1;PMS_P2;Temp;Humidity;BMP_temperature;BMP_pressure;BME280_temperature;BME280_humidity;BME280_pressure;Samples;Min_cycle;Max_cycle;Signal;HPM_P1;HPM_P2
2024/01/23 00:01:51;;;;;;;4.50;3.25;;;;;;;;;;5138957;27;20242;-63
2024/01/23 00:04:19;;;;;;;4.15;3.13;;;;;;;;;;5139192;27;20206;-63
2024/01/23 00:06:47;;;;;;;4.57;3.20;;;;;;;;;;5139173;27;20459;-63
2024/01/23 00:09:15;;;;;;;4.55;3.50;;;;;;;;;;5139076;27;20202;-63
2024/01/23 00:11:42;;;;;;;4.70;3.00;;;;;;;;;;5139142;27;20210;-63
2024/01/23 00:14:10;;;;;;;4.72;3.55;;;;;;;;;;5138519;27;20609;-63
2024/01/23 00:16:38;;;;;;;4.20;3.33;;;;;;;;;;5138889;27;20202;-63
2024/01/23 00:19:05;;;;;;;3.47;2.80;;;;;;;;;;5138613;27;20253;-64
2024/01/23 00:21:33;;;;;;;4.10;3.05;;;;;;;;;;5138472;27;20210;-64
2024/01/23 00:24:02;;;;;;;4.13;2.70;;;;;;;;;;5138604;27;20210;-64
2024/01/23 00:26:29;;;;;;;4.35;3.03;;;;;;;;;;5138820;27;20234;-63
2024/01/23 00:28:57;;;;;;;4.28;2.88;;;;;;;;;;5138702;27;20527;-63
2024/01/23 00:31:26;;;;;;;3.70;2.67;;;;;;;;;;5138455;27;20278;-63
2024/01/23 00:33:54;;;;;;;3.45;2.85;;;;;;;;;;5138376;27;20202;-63
2024/01/23 00:36:22;;;;;;;4.35;2.47;;;;;;;;;;5138552;27;20202;-63
2024/01/23 00:38:50;;;;;;;2.88;2.42;;;;;;;;;;5137965;27;20634;-63
2024/01/23 00:41:19;;;;;;;2.45;2.20;;;;;;;;;;5138543;27;20258;-63
2024/01/23 00:43:46;;;;;;;3.72;2.70;;;;;;;;;;5138353;27;20566;-63
2024/01/23 00:46:14;;;;;;;3.97;2.88;;;;;;;;;;5138452;27;20202;-63
2024/01/23 00:48:42;;;;;;;3.00;2.38;;;;;;;;;;5138490;28;20202;-63
2024/01/23 00:51:09;;;;;;;3.03;2.63;;;;;;;;;;5138081;28;20206;-63
2024/01/23 00:53:37;;;;;;;3.00;2.40;;;;;;;;;;5138226;28;20217;-63
2024/01/23 00:56:04;;;;;;;2.85;2.33;;;;;;;;;;5138901;28;20202;-63
2024/01/23 00:58:33;;;;;;;2.88;2.25;;;;;;;;;;5138263;28;20226;-63
2024/01/23 01:01:01;;;;;;;3.00;2.50;;;;;;;;;;5138612;28;20370;-63
2024/01/23 01:03:28;;;;;;;3.55;2.33;;;;;;;;;;5138227;28;20209;-63
2024/01/23 01:05:56;;;;;;;3.17;2.28;;;;;;;;;;5138131;28;20202;-63
2024/01/23 01:08:23;;;;;;;3.08;2.35;;;;;;;;;;5138146;28;20205;-63
2024/01/23 01:10:51;;;;;;;3.15;2.33;;;;;;;;;;5138276;28;20202;-63
2024/01/23 01:13:18;;;;;;;3.30;2.00;;;;;;;;;;5138193;28;20271;-63
2024/01/23 01:15:47;;;;;;;2.30;1.80;;;;;;;;;;5138128;28;20210;-63
2024/01/23 01:18:15;;;;;;;3.00;2.25;;;;;;;;;;5138598;28;20229;-64
2024/01/23 01:20:43;;;;;;;3.28;2.22;;;;;;;;;;5138107;28;20209;-63
2024/01/23 01:23:11;;;;;;;2.53;2.10;;;;;;;;;;5138705;28;20244;-63
2024/01/23 01:25:43;;;;;;;2.67;2.13;;;;;;;;;;5138235;28;20202;-64
2024/01/23 01:28:11;;;;;;;2.40;1.90;;;;;;;;;;5138140;28;20232;-64
2024/01/23 01:30:39;;;;;;;2.58;2.13;;;;;;;;;;5137984;28;20202;-64
2024/01/23 01:33:08;;;;;;;2.90;1.95;;;;;;;;;;5140844;27;20206;-63
2024/01/23 01:35:35;;;;;;;2.33;1.85;;;;;;;;;;5141902;27;20288;-63
2024/01/23 01:38:02;;;;;;;2.80;1.95;;;;;;;;;;5142211;27;20266;-63
2024/01/23 01:40:30;;;;;;;2.70;1.83;;;;;;;;;;5142145;27;20244;-64
2024/01/23 01:42:58;;;;;;;2.58;1.85;;;;;;;;;;5141669;27;20285;-64
2024/01/23 01:45:25;;;;;;;2.50;1.92;;;;;;;;;;5141701;27;20212;-64
2024/01/23 01:47:53;;;;;;;2.70;1.80;;;;;;;;;;5141777;27;20262;-64
2024/01/23 01:50:22;;;;;;;2.40;1.80;;;;;;;;;;5142137;27;20594;-64
2024/01/23 01:52:50;;;;;;;2.53;1.80;;;;;;;;;;5141701;27;20202;-64
2024/01/23 01:55:18;;;;;;;3.38;1.80;;;;;;;;;;5141652;27;20263;-64
2024/01/23 01:57:46;;;;;;;2.67;1.65;;;;;;;;;;5141941;27;20212;-64
2024/01/23 02:00:14;;;;;;;2.08;1.85;;;;;;;;;;5141636;27;20302;-63
2024/01/23 02:02:43;;;;;;;1.77;1.60;;;;;;;;;;5141166;27;20230;-64
2024/01/23 02:05:10;;;;;;;2.75;1.60;;;;;;;;;;5141407;27;20262;-63
2024/01/23 02:07:40;;;;;;;2.28;1.58;;;;;;;;;;5141950;27;20659;-63
2024/01/23 02:10:07;;;;;;;2.45;1.70;;;;;;;;;;5141640;27;20198;-63
2024/01/23 02:12:35;;;;;;;2.30;1.50;;;;;;;;;;5141781;27;20203;-64
2024/01/23 02:15:03;;;;;;;2.20;1.58;;;;;;;;;;5141125;27;20206;-64
2024/01/23 02:17:30;;;;;;;1.92;1.70;;;;;;;;;;5140925;27;20229;-64
2024/01/23 02:19:58;;;;;;;2.05;1.50;;;;;;;;;;5140808;27;20618;-64
2024/01/23 02:22:25;;;;;;;1.80;1.48;;;;;;;;;;5141014;27;20202;-64
2024/01/23 02:24:54;;;;;;;1.88;1.48;;;;;;;;;;5141090;27;20202;-64
2024/01/23 02:27:22;;;;;;;2.05;1.50;;;;;;;;;;5141284;27;20238;-64
2024/01/23 02:29:49;;;;;;;2.00;1.48;;;;;;;;;;5141031;27;20530;-64
2024/01/23 02:32:17;;;;;;;1.90;1.58;;;;;;;;;;5140909;27;20228;-64
2024/01/23 02:34:45;;;;;;;2.85;1.40;;;;;;;;;;5140499;27;20268;-64
2024/01/23 02:37:12;;;;;;;1.60;1.50;;;;;;;;;;5140730;27;20210;-63
2024/01/23 02:39:39;;;;;;;2.05;1.40;;;;;;;;;;5140738;27;20222;-63
2024/01/23 02:42:10;;;;;;;1.50;1.40;;;;;;;;;;5141179;27;20486;-63
2024/01/23 02:44:37;;;;;;;1.90;1.35;;;;;;;;;;5140396;27;20310;-63
2024/01/23 02:47:06;;;;;;;1.67;1.42;;;;;;;;;;5140879;27;20500;-63
2024/01/23 02:49:33;;;;;;;1.60;1.30;;;;;;;;;;5140353;27;20487;-63
2024/01/23 02:52:02;;;;;;;2.20;1.40;;;;;;;;;;5140711;27;20238;-63
2024/01/23 02:54:30;;;;;;;1.98;1.50;;;;;;;;;;5140505;27;20256;-63
2024/01/23 02:56:57;;;;;;;1.55;1.10;;;;;;;;;;5140287;27;20206;-63
2024/01/23 02:59:26;;;;;;;2.08;1.20;;;;;;;;;;5140740;27;20226;-63
2024/01/23 03:01:54;;;;;;;1.45;1.10;;;;;;;;;;5140652;27;20265;-63
2024/01/23 03:04:21;;;;;;;1.30;0.98;;;;;;;;;;5140170;27;20283;-64
2024/01/23 03:06:49;;;;;;;1.30;1.10;;;;;;;;;;5140315;27;20198;-64
2024/01/23 03:09:16;;;;;;;1.92;1.20;;;;;;;;;;5140249;27;20198;-64
2024/01/23 03:11:44;;;;;;;1.42;1.13;;;;;;;;;;5140057;27;20504;-63
2024/01/23 03:14:12;;;;;;;1.40;1.02;;;;;;;;;;5139952;27;20225;-63
2024/01/23 03:16:41;;;;;;;1.75;1.10;;;;;;;;;;5139507;27;20212;-63
2024/01/23 03:19:08;;;;;;;1.83;1.30;;;;;;;;;;5140044;27;20226;-63
2024/01/23 03:21:36;;;;;;;1.35;1.10;;;;;;;;;;5140350;27;20301;-63
2024/01/23 03:24:03;;;;;;;1.50;1.17;;;;;;;;;;5139763;27;20499;-64
2024/01/23 03:26:31;;;;;;;1.20;1.10;;;;;;;;;;5140070;27;20210;-64
2024/01/23 03:28:58;;;;;;;1.85;1.23;;;;;;;;;;5139965;27;20198;-64
2024/01/23 03:31:26;;;;;;;1.80;1.00;;;;;;;;;;5139770;27;20203;-64
2024/01/23 03:33:55;;;;;;;2.10;1.20;;;;;;;;;;5139561;27;20258;-64
2024/01/23 03:36:22;;;;;;;1.77;1.15;;;;;;;;;;5139598;27;20210;-64
2024/01/23 03:38:50;;;;;;;1.45;1.00;;;;;;;;;;5140263;27;20682;-64
2024/01/23 03:41:18;;;;;;;2.00;1.20;;;;;;;;;;5139524;27;20233;-64
2024/01/23 03:43:45;;;;;;;1.38;1.02;;;;;;;;;;5139176;27;20240;-64
2024/01/23 03:46:13;;;;;;;1.88;1.17;;;;;;;;;;5139702;27;20232;-64
2024/01/23 03:48:40;;;;;;;1.80;1.10;;;;;;;;;;5139593;27;20214;-63
2024/01/23 03:51:10;;;;;;;1.42;0.90;;;;;;;;;;5138825;27;20241;-63
2024/01/23 03:53:37;;;;;;;1.30;1.00;;;;;;;;;;5139060;27;20294;-63
2024/01/23 03:56:05;;;;;;;2.15;1.00;;;;;;;;;;5139023;27;20266;-63
2024/01/23 03:58:33;;;;;;;1.08;0.95;;;;;;;;;;5139273;27;20237;-63
2024/01/23 04:01:01;;;;;;;1.10;1.00;;;;;;;;;;5139173;27;20265;-63
2024/01/23 04:03:28;;;;;;;1.60;1.10;;;;;;;;;;5139219;27;20206;-63
2024/01/23 04:05:56;;;;;;;1.45;1.10;;;;;;;;;;5138998;27;20593;-63
2024/01/23 04:08:25;;;;;;;1.58;1.00;;;;;;;;;;5139201;27;20560;-63
2024/01/23 04:10:52;;;;;;;1.00;0.90;;;;;;;;;;5139055;27;20206;-63
2024/01/23 04:13:20;;;;;;;2.30;1.10;;;;;;;;;;5139031;27;20210;-64
2024/01/23 04:15:47;;;;;;;1.45;1.10;;;;;;;;;;5139566;27;20274;-64
2024/01/23 04:18:15;;;;;;;1.00;0.80;;;;;;;;;;5138816;27;20194;-63
2024/01/23 04:20:43;;;;;;;2.33;1.10;;;;;;;;;;5138363;27;20324;-63
2024/01/23 04:23:10;;;;;;;1.67;1.20;;;;;;;;;;5139040;27;20492;-63
2024/01/23 04:25:39;;;;;;;1.50;1.10;;;;;;;;;;5138265;27;20213;-63
2024/01/23 04:28:07;;;;;;;2.17;0.90;;;;;;;;;;5138862;27;20268;-63
2024/01/23 04:30:34;;;;;;;0.88;0.77;;;;;;;;;;5138336;27;20206;-63
2024/01/23 04:33:02;;;;;;;1.42;0.90;;;;;;;;;;5138650;27;20206;-63
2024/01/23 04:35:30;;;;;;;1.00;0.90;;;;;;;;;;5138482;27;20202;-63
2024/01/23 04:37:57;;;;;;;2.00;0.90;;;;;;;;;;5138893;27;20562;-63
2024/01/23 04:40:25;;;;;;;1.35;0.90;;;;;;;;;;5138580;27;20317;-63
2024/01/23 04:42:54;;;;;;;0.95;0.85;;;;;;;;;;5138224;27;20582;-63
2024/01/23 04:45:21;;;;;;;1.70;0.88;;;;;;;;;;5138806;27;20202;-63
2024/01/23 04:47:49;;;;;;;0.95;0.80;;;;;;;;;;5138252;27;20237;-63
2024/01/23 04:50:16;;;;;;;1.45;0.90;;;;;;;;;;5138383;28;20233;-63
2024/01/23 04:52:43;;;;;;;1.08;0.82;;;;;;;;;;5138108;28;20205;-63
2024/01/23 04:55:11;;;;;;;1.73;0.70;;;;;;;;;;5138736;28;20275;-63
2024/01/23 04:57:39;;;;;;;0.93;0.65;;;;;;;;;;5137674;28;20202;-63
2024/01/23 05:00:09;;;;;;;1.25;0.80;;;;;;;;;;5137830;28;20229;-63
2024/01/23 05:02:37;;;;;;;0.95;0.70;;;;;;;;;;5137717;27;20226;-63
2024/01/23 05:05:05;;;;;;;1.05;0.90;;;;;;;;;;5138404;28;20557;-64
2024/01/23 05:07:33;;;;;;;1.55;0.90;;;;;;;;;;5139997;27;20202;-64
2024/01/23 05:10:02;;;;;;;1.40;0.85;;;;;;;;;;5142577;27;20198;-64
2024/01/23 05:12:30;;;;;;;0.88;0.73;;;;;;;;;;5142546;27;20251;-64
2024/01/23 05:14:57;;;;;;;1.52;0.88;;;;;;;;;;5142291;27;20210;-64
2024/01/23 05:17:26;;;;;;;1.42;0.70;;;;;;;;;;5142191;27;20228;-64
2024/01/23 05:19:53;;;;;;;1.15;0.90;;;;;;;;;;5142110;27;20232;-64
2024/01/23 05:22:21;;;;;;;1.08;0.93;;;;;;;;;;5141923;27;20202;-64
2024/01/23 05:24:48;;;;;;;0.80;0.80;;;;;;;;;;5142009;27;20202;-64
2024/01/23 05:27:15;;;;;;;0.95;0.80;;;;;;;;;;5142122;27;20502;-64
2024/01/23 05:29:43;;;;;;;1.10;0.80;;;;;;;;;;5141737;27;20206;-64
2024/01/23 05:32:10;;;;;;;0.75;0.60;;;;;;;;;;5141893;27;20596;-64
2024/01/23 05:34:39;;;;;;;1.10;0.80;;;;;;;;;;5141472;27;20582;-64
2024/01/23 05:37:06;;;;;;;1.08;0.70;;;;;;;;;;5141434;27;20206;-64
2024/01/23 05:39:37;;;;;;;1.25;0.80;;;;;;;;;;5141541;27;20230;-64
2024/01/23 05:42:05;;;;;;;1.73;0.70;;;;;;;;;;5141562;27;20463;-64
2024/01/23 05:44:33;;;;;;;0.88;0.52;;;;;;;;;;5140910;27;20685;-64
2024/01/23 05:47:01;;;;;;;1.15;0.60;;;;;;;;;;5140749;27;20213;-64
2024/01/23 05:49:28;;;;;;;1.00;0.70;;;;;;;;;;5140755;27;20199;-64
2024/01/23 05:51:57;;;;;;;1.75;0.70;;;;;;;;;;5140393;27;20479;-64
2024/01/23 05:54:24;;;;;;;0.77;0.52;;;;;;;;;;5140539;27;20194;-64
2024/01/23 05:56:51;;;;;;;0.80;0.80;;;;;;;;;;5140425;27;20202;-64
2024/01/23 05:59:19;;;;;;;0.90;0.60;;;;;;;;;;5140625;27;20202;-64
2024/01/23 06:01:46;;;;;;;1.25;0.80;;;;;;;;;;5139245;27;20226;-64
2024/01/23 06:04:14;;;;;;;1.08;0.60;;;;;;;;;;5139015;28;20213;-64
2024/01/23 06:06:41;;;;;;;0.60;0.50;;;;;;;;;;5138714;28;20202;-64
2024/01/23 06:09:11;;;;;;;0.95;0.50;;;;;;;;;;5138237;28;20480;-64
2024/01/23 06:11:39;;;;;;;0.68;0.50;;;;;;;;;;5137615;28;20659;-64
2024/01/23 06:14:07;;;;;;;0.98;0.50;;;;;;;;;;5138173;28;20266;-64
2024/01/23 06:16:34;;;;;;;1.15;0.70;;;;;;;;;;5137462;28;20294;-64
2024/01/23 06:19:02;;;;;;;1.33;0.68;;;;;;;;;;5136259;27;20205;-64
2024/01/23 06:21:30;;;;;;;1.13;0.73;;;;;;;;;;5137365;28;20226;-64
2024/01/23 06:23:57;;;;;;;1.40;0.75;;;;;;;;;;5137796;28;20209;-64
2024/01/23 06:26:26;;;;;;;1.48;0.90;;;;;;;;;;5139096;28;20481;-64
2024/01/23 06:28:53;;;;;;;1.20;0.85;;;;;;;;;;5115779;28;20205;-64
2024/01/23 06:31:25;;;;;;;2.00;0.77;;;;;;;;;;5117519;28;20211;-64
2024/01/23 06:33:53;;;;;;;2.03;1.10;;;;;;;;;;5117116;28;20203;-64
2024/01/23 06:36:20;;;;;;;2.15;1.10;;;;;;;;;;5116838;28;20207;-64
2024/01/23 06:38:47;;;;;;;2.65;0.90;;;;;;;;;;5116671;28;20217;-64
2024/01/23 06:41:16;;;;;;;1.60;1.00;;;;;;;;;;5128141;28;20233;-64
2024/01/23 06:43:45;;;;;;;3.53;1.55;;;;;;;;;;5135720;28;20248;-64
2024/01/23 06:46:12;;;;;;;2.45;1.20;;;;;;;;;;5137074;28;20202;-64
2024/01/23 06:48:39;;;;;;;2.22;1.20;;;;;;;;;;5136601;28;20803;-64
2024/01/23 06:51:07;;;;;;;3.58;1.17;;;;;;;;;;5136920;28;20224;-63
2024/01/23 06:53:34;;;;;;;1.60;1.05;;;;;;;;;;5137762;28;20202;-63
2024/01/23 06:56:02;;;;;;;2.83;1.33;;;;;;;;;;5136451;28;20202;-63
2024/01/23 06:58:29;;;;;;;2.33;1.10;;;;;;;;;;5137241;28;20217;-63
2024/01/23 07:00:58;;;;;;;2.63;1.30;;;;;;;;;;5094060;27;1217065;-63
2024/01/23 07:03:25;;;;;;;2.22;1.35;;;;;;;;;;5138524;27;20488;-64
2024/01/23 07:05:53;;;;;;;2.40;1.20;;;;;;;;;;5138397;27;20209;-64
2024/01/23 07:08:21;;;;;;;2.72;1.35;;;;;;;;;;5138330;27;20514;-64
2024/01/23 07:10:48;;;;;;;2.55;1.10;;;;;;;;;;5138296;27;20206;-64
2024/01/23 07:13:15;;;;;;;3.17;1.40;;;;;;;;;;5138735;27;20220;-64
2024/01/23 07:15:43;;;;;;;3.20;1.65;;;;;;;;;;5138999;27;20225;-64
2024/01/23 07:18:11;;;;;;;3.35;1.40;;;;;;;;;;5138445;27;20212;-64
2024/01/23 07:20:39;;;;;;;2.45;1.20;;;;;;;;;;5138941;27;20647;-64
2024/01/23 07:23:07;;;;;;;3.85;1.63;;;;;;;;;;5138538;27;20208;-64
2024/01/23 07:25:34;;;;;;;2.78;1.15;;;;;;;;;;5138717;27;20752;-64
2024/01/23 07:28:01;;;;;;;3.95;1.60;;;;;;;;;;5139199;27;20221;-63
2024/01/23 07:30:28;;;;;;;2.28;1.25;;;;;;;;;;5127070;27;20231;-63
2024/01/23 07:32:56;;;;;;;3.25;1.20;;;;;;;;;;5117600;28;20211;-63
2024/01/23 07:35:25;;;;;;;2.45;1.35;;;;;;;;;;5117815;28;20229;-64
2024/01/23 07:37:52;;;;;;;4.35;1.60;;;;;;;;;;5117765;28;20297;-64
2024/01/23 07:40:20;;;;;;;3.42;1.63;;;;;;;;;;5117099;28;20230;-64
2024/01/23 07:42:47;;;;;;;2.42;1.27;;;;;;;;;;5117105;28;20210;-64
2024/01/23 07:45:15;;;;;;;3.75;1.80;;;;;;;;;;5118189;28;20202;-64
2024/01/23 07:47:42;;;;;;;2.42;1.33;;;;;;;;;;5117235;28;20202;-64
2024/01/23 07:50:12;;;;;;;2.95;1.27;;;;;;;;;;5116501;28;20490;-64
2024/01/23 07:52:40;;;;;;;3.03;1.35;;;;;;;;;;5117024;28;20203;-64
2024/01/23 07:55:08;;;;;;;2.55;1.25;;;;;;;;;;5116946;28;20207;-64
2024/01/23 07:57:36;;;;;;;3.60;1.30;;;;;;;;;;5116204;28;20505;-64
2024/01/23 08:00:03;;;;;;;4.45;1.75;;;;;;;;;;5116453;28;20276;-64
2024/01/23 08:02:31;;;;;;;2.95;1.38;;;;;;;;;;5117011;28;20288;-64
2024/01/23 08:04:58;;;;;;;2.97;1.52;;;;;;;;;;5116537;28;20213;-64
2024/01/23 08:07:25;;;;;;;3.00;1.52;;;;;;;;;;5116059;28;20213;-64
2024/01/23 08:09:54;;;;;;;2.88;1.52;;;;;;;;;;5115028;28;20203;-64
2024/01/23 08:12:21;;;;;;;2.78;1.40;;;;;;;;;;5116856;28;20206;-64
2024/01/23 08:14:49;;;;;;;2.63;1.45;;;;;;;;;;5117098;28;20489;-64
2024/01/23 08:17:18;;;;;;;3.25;1.35;;;;;;;;;;5116610;28;20222;-64
2024/01/23 08:19:45;;;;;;;3.53;1.40;;;;;;;;;;5116574;28;20259;-64
2024/01/23 08:22:13;;;;;;;3.38;1.25;;;;;;;;;;5116497;28;20265;-64
2024/01/23 08:24:40;;;;;;;3.35;1.50;;;;;;;;;;5117227;28;20267;-64
2024/01/23 08:27:09;;;;;;;3.38;1.20;;;;;;;;;;5116554;28;20587;-64
2024/01/23 08:29:36;;;;;;;2.38;1.40;;;;;;;;;;5117206;28;20198;-64
2024/01/23 08:32:04;;;;;;;3.05;1.13;;;;;;;;;;5116299;28;20199;-64
2024/01/23 08:34:32;;;;;;;4.18;1.23;;;;;;;;;;5116494;28;20207;-64
2024/01/23 08:36:59;;;;;;;3.33;1.42;;;;;;;;;;5115769;28;20207;-64
2024/01/23 08:39:26;;;;;;;3.35;1.55;;;;;;;;;;5116685;28;20229;-64
2024/01/23 08:41:54;;;;;;;1.73;1.20;;;;;;;;;;5116061;28;20654;-64
2024/01/23 08:44:23;;;;;;;2.22;1.25;;;;;;;;;;5116674;28;20294;-64
2024/01/23 08:46:50;;;;;;;1.85;1.08;;;;;;;;;;5116440;28;20210;-64
2024/01/23 08:49:18;;;;;;;3.00;1.40;;;;;;;;;;5116308;28;20495;-64
2024/01/23 08:51:46;;;;;;;2.83;1.45;;;;;;;;;;5116163;28;20201;-64
2024/01/23 08:54:18;;;;;;;2.28;1.23;;;;;;;;;;5116190;28;20202;-64
2024/01/23 08:56:46;;;;;;;2.90;1.30;;;;;;;;;;5116807;28;20205;-64
2024/01/23 08:59:13;;;;;;;2.70;1.35;;;;;;;;;;5116398;28;20587;-64
2024/01/23 09:01:42;;;;;;;3.65;1.40;;;;;;;;;;5115723;28;20253;-64
2024/01/23 09:04:09;;;;;;;2.55;1.50;;;;;;;;;;5116317;28;20210;-64
2024/01/23 09:06:37;;;;;;;2.53;1.20;;;;;;;;;;5116705;28;20203;-64
2024/01/23 09:09:05;;;;;;;1.70;1.08;;;;;;;;;;5116924;28;20203;-64
2024/01/23 09:11:32;;;;;;;2.03;1.35;;;;;;;;;;5116073;28;20199;-64
2024/01/23 09:14:00;;;;;;;2.03;1.27;;;;;;;;;;5116180;28;20673;-64
2024/01/23 09:16:28;;;;;;;1.50;1.30;;;;;;;;;;5116307;28;20203;-64
2024/01/23 09:18:56;;;;;;;1.75;1.30;;;;;;;;;;5116371;28;20202;-64
2024/01/23 09:21:24;;;;;;;2.30;1.08;;;;;;;;;;5115102;28;20641;-64
2024/01/23 09:23:52;;;;;;;2.25;1.50;;;;;;;;;;5114778;28;20194;-64
2024/01/23 09:26:20;;;;;;;1.80;1.10;;;;;;;;;;5115559;28;20203;-64
2024/01/23 09:28:47;;;;;;;2.03;1.30;;;;;;;;;;5115527;28;20635;-64
2024/01/23 09:31:14;;;;;;;2.25;1.40;;;;;;;;;;5115593;28;20199;-64
2024/01/23 09:33:42;;;;;;;3.00;1.55;;;;;;;;;;5115998;28;20462;-64
2024/01/23 09:36:11;;;;;;;2.10;1.42;;;;;;;;;;5115679;28;20203;-64
2024/01/23 09:38:38;;;;;;;2.40;1.02;;;;;;;;;;5114935;28;20203;-64
2024/01/23 09:41:11;;;;;;;1.55;1.05;;;;;;;;;;5115625;28;20317;-64
2024/01/23 09:43:40;;;;;;;2.67;1.40;;;;;;;;;;5115885;28;20195;-64
2024/01/23 09:46:11;;;;;;;2.10;1.20;;;;;;;;;;5116134;28;20261;-64
2024/01/23 09:48:39;;;;;;;1.98;1.20;;;;;;;;;;5116166;28;20203;-64
2024/01/23 09:51:11;;;;;;;1.92;1.10;;;;;;;;;;5116521;28;20203;-64
2024/01/23 09:53:41;;;;;;;2.60;1.20;;;;;;;;;;5118258;28;20478;-64
2024/01/23 09:56:09;;;;;;;1.85;1.25;;;;;;;;;;5119559;28;20195;-64
2024/01/23 09:58:37;;;;;;;2.05;1.20;;;;;;;;;;5119690;28;20203;-64
2024/01/23 10:01:05;;;;;;;1.85;1.10;;;;;;;;;;5118506;27;20242;-64
2024/01/23 10:03:33;;;;;;;1.95;0.88;;;;;;;;;;5118217;28;20621;-64
2024/01/23 10:06:01;;;;;;;2.05;1.30;;;;;;;;;;5118197;28;20630;-64
2024/01/23 10:08:28;;;;;;;2.05;0.90;;;;;;;;;;5119312;28;20293;-64
2024/01/23 10:11:00;;;;;;;1.83;1.13;;;;;;;;;;5118375;28;20199;-64
2024/01/23 10:13:28;;;;;;;1.67;1.23;;;;;;;;;;5118856;28;20203;-64
2024/01/23 10:15:55;;;;;;;2.50;1.33;;;;;;;;;;5118232;28;20198;-64
2024/01/23 10:18:23;;;;;;;2.33;1.13;;;;;;;;;;5119080;28;20206;-64
2024/01/23 10:20:50;;;;;;;2.63;1.05;;;;;;;;;;5118961;28;20202;-64
2024/01/23 10:23:18;;;;;;;1.75;1.08;;;;;;;;;;5119067;28;20211;-64
2024/01/23 10:25:46;;;;;;;3.05;1.20;;;;;;;;;;5118497;28;20557;-64
2024/01/23 10:28:16;;;;;;;2.65;1.42;;;;;;;;;;5118278;28;20203;-64
2024/01/23 10:30:45;;;;;;;1.45;0.98;;;;;;;;;;5118119;28;20203;-64
2024/01/23 10:33:12;;;;;;;2.42;1.38;;;;;;;;;;5117695;28;20207;-64
2024/01/23 10:35:40;;;;;;;1.67;1.17;;;;;;;;;;5118054;28;20214;-64
2024/01/23 10:38:07;;;;;;;2.03;1.20;;;;;;;;;;5117406;28;20217;-64
2024/01/23 10:40:34;;;;;;;1.48;1.10;;;;;;;;;;5117686;28;20199;-64
2024/01/23 10:43:03;;;;;;;2.35;1.13;;;;;;;;;;5116708;28;20222;-64
2024/01/23 10:45:32;;;;;;;2.15;1.15;;;;;;;;;;5116800;28;20199;-64
2024/01/23 10:48:01;;;;;;;2.00;0.98;;;;;;;;;;5117407;28;20210;-64
2024/01/23 10:50:29;;;;;;;3.05;1.00;;;;;;;;;;5116926;28;20203;-64
2024/01/23 10:53:02;;;;;;;2.13;1.20;;;;;;;;;;5116098;28;20210;-64
2024/01/23 10:55:30;;;;;;;2.22;1.05;;;;;;;;;;5097105;28;20615;-64
2024/01/23 10:58:01;;;;;;;1.88;1.13;;;;;;;;;;5096966;28;20298;-64
2024/01/23 11:00:28;;;;;;;1.73;1.00;;;;;;;;;;5097429;28;20199;-64
2024/01/23 11:02:59;;;;;;;2.10;1.00;;;;;;;;;;5096020;28;20231;-64
2024/01/23 11:05:29;;;;;;;2.40;1.35;;;;;;;;;;5096350;28;20228;-64
2024/01/23 11:07:58;;;;;;;1.95;1.05;;;;;;;;;;5097470;28;20204;-64
2024/01/23 11:10:30;;;;;;;2.72;1.30;;;;;;;;;;5096945;28;20208;-64
2024/01/23 11:13:07;;;;;;;2.58;1.10;;;;;;;;;;5096295;28;20200;-64
2024/01/23 11:15:34;;;;;;;3.53;1.42;;;;;;;;;;5097472;28;20229;-64
2024/01/23 11:18:16;;;;;;;3.15;1.38;;;;;;;;;;5095695;28;20203;-64
2024/01/23 11:20:45;;;;;;;1.95;1.13;;;;;;;;;;5094714;28;20203;-64
2024/01/23 11:23:14;;;;;;;2.40;1.25;;;;;;;;;;5095945;28;20735;-64
2024/01/23 11:25:58;;;;;;;2.92;1.20;;;;;;;;;;5096493;28;20211;-64
2024/01/23 11:28:26;;;;;;;2.15;1.30;;;;;;;;;;5096689;28;20215;-64
2024/01/23 11:31:07;;;;;;;2.83;1.30;;;;;;;;;;5096382;28;20579;-64
2024/01/23 11:33:35;;;;;;;2.13;1.40;;;;;;;;;;5096434;28;20214;-64
2024/01/23 11:36:13;;;;;;;3.20;1.42;;;;;;;;;;5095691;28;20225;-64
2024/01/23 11:38:45;;;;;;;2.90;1.42;;;;;;;;;;5095399;28;20210;-64
2024/01/23 11:41:22;;;;;;;2.30;1.40;;;;;;;;;;5095014;28;20603;-64
2024/01/23 11:43:49;;;;;;;2.47;1.30;;;;;;;;;;5096248;28;20475;-64
2024/01/23 11:46:19;;;;;;;3.22;1.75;;;;;;;;;;5096160;28;20282;-64
2024/01/23 11:48:47;;;;;;;2.65;1.58;;;;;;;;;;5095888;28;20265;-64
2024/01/23 11:51:17;;;;;;;3.70;1.50;;;;;;;;;;5095520;28;20207;-64
2024/01/23 11:53:45;;;;;;;3.38;1.42;;;;;;;;;;5094395;28;20294;-64
2024/01/23 11:56:13;;;;;;;4.05;1.77;;;;;;;;;;5095602;28;20210;-64
2024/01/23 11:58:42;;;;;;;3.83;1.77;;;;;;;;;;5095541;28;20592;-64
2024/01/23 12:01:10;;;;;;;3.08;1.75;;;;;;;;;;5100499;28;20226;-64
2024/01/23 12:03:37;;;;;;;4.55;1.55;;;;;;;;;;5116134;28;20195;-63
2024/01/23 12:06:05;;;;;;;3.08;1.52;;;;;;;;;;5116546;28;20203;-63
2024/01/23 12:08:33;;;;;;;3.17;1.63;;;;;;;;;;5116239;28;20712;-63
2024/01/23 12:11:01;;;;;;;4.18;2.30;;;;;;;;;;5116733;28;20203;-63
2024/01/23 12:13:28;;;;;;;2.72;1.65;;;;;;;;;;5115045;28;20626;-63
2024/01/23 12:15:55;;;;;;;3.58;1.73;;;;;;;;;;5115657;28;20203;-63
2024/01/23 12:18:23;;;;;;;2.60;1.73;;;;;;;;;;5115980;28;20297;-63
2024/01/23 12:20:54;;;;;;;3.28;1.50;;;;;;;;;;5115619;28;20202;-63
2024/01/23 12:23:21;;;;;;;3.15;1.83;;;;;;;;;;5114868;28;20288;-63
2024/01/23 12:25:50;;;;;;;3.72;1.63;;;;;;;;;;5115396;28;20221;-63
2024/01/23 12:28:17;;;;;;;2.88;1.45;;;;;;;;;;5116108;28;20203;-63
2024/01/23 12:30:45;;;;;;;3.03;1.50;;;;;;;;;;5115678;28;20640;-63
2024/01/23 12:33:15;;;;;;;2.00;1.38;;;;;;;;;;5116161;28;20237;-64
2024/01/23 12:35:42;;;;;;;3.75;1.70;;;;;;;;;;5115215;28;20207;-64
2024/01/23 12:38:10;;;;;;;3.53;1.48;;;;;;;;;;5113795;28;20209;-64
2024/01/23 12:40:38;;;;;;;3.55;1.92;;;;;;;;;;5114910;28;20211;-64
2024/01/23 12:43:07;;;;;;;3.17;1.63;;;;;;;;;;5115220;28;20253;-64
2024/01/23 12:45:34;;;;;;;3.78;1.70;;;;;;;;;;5114567;28;20202;-64
2024/01/23 12:48:02;;;;;;;3.80;1.90;;;;;;;;;;5115531;28;20206;-64
2024/01/23 12:50:31;;;;;;;3.30;1.55;;;;;;;;;;5114515;28;20274;-64
2024/01/23 12:52:59;;;;;;;4.07;1.70;;;;;;;;;;5114294;28;20195;-64
2024/01/23 12:55:28;;;;;;;3.90;1.40;;;;;;;;;;5115408;28;20549;-64
2024/01/23 12:57:55;;;;;;;2.47;1.70;;;;;;;;;;5115740;28;20494;-64
2024/01/23 13:00:24;;;;;;;2.38;1.35;;;;;;;;;;5115636;28;20213;-64
2024/01/23 13:02:52;;;;;;;2.88;1.67;;;;;;;;;;5114897;28;20241;-64
2024/01/23 13:05:21;;;;;;;2.20;1.60;;;;;;;;;;5113992;28;20231;-64
2024/01/23 13:07:49;;;;;;;3.78;1.50;;;;;;;;;;5115119;28;20205;-64
2024/01/23 13:10:17;;;;;;;3.10;1.20;;;;;;;;;;5114538;28;20203;-64
2024/01/23 13:12:44;;;;;;;2.88;1.55;;;;;;;;;;5115543;28;20551;-64
2024/01/23 13:15:12;;;;;;;3.58;1.83;;;;;;;;;;5114708;28;20297;-64
2024/01/23 13:17:41;;;;;;;3.20;1.70;;;;;;;;;;5114859;28;20234;-64
2024/01/23 13:20:10;;;;;;;2.38;1.33;;;;;;;;;;5115291;28;20209;-64
2024/01/23 13:22:44;;;;;;;3.63;1.80;;;;;;;;;;5114139;28;20219;-64
2024/01/23 13:25:17;;;;;;;2.80;1.30;;;;;;;;;;5115506;28;20207;-64
2024/01/23 13:27:45;;;;;;;3.28;1.40;;;;;;;;;;5115169;28;20232;-64
2024/01/23 13:30:16;;;;;;;2.33;1.42;;;;;;;;;;5116749;28;20195;-64
2024/01/23 13:32:47;;;;;;;2.45;1.58;;;;;;;;;;5115876;28;20207;-64
2024/01/23 13:35:15;;;;;;;2.25;1.30;;;;;;;;;;5116264;28;20559;-64
2024/01/23 13:37:42;;;;;;;4.15;1.58;;;;;;;;;;5116248;28;20299;-64
2024/01/23 13:40:10;;;;;;;2.60;1.30;;;;;;;;;;5114337;28;20221;-64
2024/01/23 13:42:38;;;;;;;2.72;1.20;;;;;;;;;;5117228;28;20234;-64
2024/01/23 13:45:06;;;;;;;2.88;1.73;;;;;;;;;;5116891;28;20230;-64
2024/01/23 13:47:34;;;;;;;2.40;1.48;;;;;;;;;;5116582;28;20230;-64
2024/01/23 13:50:04;;;;;;;2.67;1.50;;;;;;;;;;5116316;28;20587;-64
2024/01/23 13:52:32;;;;;;;2.25;1.50;;;;;;;;;;5116021;28;20226;-64
2024/01/23 13:54:59;;;;;;;2.65;1.20;;;;;;;;;;5117148;28;20260;-64
2024/01/23 13:57:27;;;;;;;2.42;1.40;;;;;;;;;;5116580;28;20213;-64
2024/01/23 13:59:54;;;;;;;2.42;1.75;;;;;;;;;;5114999;28;20207;-64
2024/01/23 14:02:22;;;;;;;2.50;1.55;;;;;;;;;;5115125;28;20246;-64
2024/01/23 14:04:49;;;;;;;2.78;1.50;;;;;;;;;;5115249;28;20232;-64
2024/01/23 14:07:18;;;;;;;2.55;1.30;;;;;;;;;;5117105;28;20391;-64
2024/01/23 14:09:46;;;;;;;2.20;1.63;;;;;;;;;;5115104;28;20553;-63
2024/01/23 14:12:13;;;;;;;3.72;1.65;;;;;;;;;;5115750;28;20195;-63
2024/01/23 14:14:40;;;;;;;2.42;1.33;;;;;;;;;;5118088;28;20233;-64
2024/01/23 14:17:08;;;;;;;2.20;1.38;;;;;;;;;;5117279;28;20195;-64
2024/01/23 14:19:36;;;;;;;2.28;1.20;;;;;;;;;;5117165;28;20319;-64
2024/01/23 14:22:04;;;;;;;3.05;1.40;;;;;;;;;;5117490;28;20203;-64
2024/01/23 14:24:33;;;;;;;2.83;1.52;;;;;;;;;;5118245;28;20715;-64
2024/01/23 14:27:01;;;;;;;2.20;1.33;;;;;;;;;;5117564;28;20210;-64
2024/01/23 14:29:28;;;;;;;2.53;1.40;;;;;;;;;;5117237;28;20203;-64
2024/01/23 14:31:55;;;;;;;3.22;1.73;;;;;;;;;;5116839;28;20227;-64
2024/01/23 14:34:23;;;;;;;2.17;1.38;;;;;;;;;;5117007;28;20210;-64
2024/01/23 14:36:51;;;;;;;1.85;1.20;;;;;;;;;;5117494;28;20299;-64
2024/01/23 14:39:19;;;;;;;2.00;1.25;;;;;;;;;;5117448;28;20203;-64
2024/01/23 14:41:47;;;;;;;2.17;1.40;;;;;;;;;;5118615;28;20210;-64
2024/01/23 14:44:15;;;;;;;3.75;1.75;;;;;;;;;;5117830;28;20241;-64
2024/01/23 14:46:42;;;;;;;2.25;1.48;;;;;;;;;;5117681;28;20198;-64
2024/01/23 14:49:09;;;;;;;3.97;1.40;;;;;;;;;;5117873;28;20209;-64